Time;durP1;ratioP1;P1;durP2;ratioP2;P2;SDS_P1;SDS_P2;PMS_P1;PMS_P2;Temp;Humidity;BMP_temperature;BMP_pressure;BME280_temperature;BME280_humidity;BME280_pressure;Samples;Min_cycle;Max_cycle;Signal;HPM_P1;HPM_P2
2023/06/30 00:02:51;;;;;;;3.80;3.40;;;;;;;15.86;67.23;99754.48;130387;1261;106541;-82
2023/06/30 00:05:56;;;;;;;3.90;3.20;;;;;;;15.80;67.32;99752.05;130229;1272;107496;-81
2023/06/30 00:09:03;;;;;;;4.60;3.50;;;;;;;15.76;67.33;99752.23;130408;1264;107389;-81
2023/06/30 00:12:11;;;;;;;3.60;3.30;;;;;;;15.72;67.60;99750.67;130462;1260;107281;-82
2023/06/30 00:15:17;;;;;;;3.80;3.20;;;;;;;15.73;67.68;99746.48;130772;1264;107277;-82
2023/06/30 00:18:23;;;;;;;5.90;4.40;;;;;;;15.76;67.90;99750.91;130742;1263;107540;-80
2023/06/30 00:21:28;;;;;;;6.90;4.60;;;;;;;15.80;67.90;99752.05;130505;1263;108697;-81
2023/06/30 00:24:34;;;;;;;4.50;4.10;;;;;;;15.82;67.97;99748.91;130653;1264;107554;-82
2023/06/30 00:27:40;;;;;;;5.90;4.20;;;;;;;15.78;67.99;99751.25;130133;1264;107425;-81
2023/06/30 00:30:46;;;;;;;4.20;3.80;;;;;;;15.71;68.19;99751.52;130838;1263;107562;-81
2023/06/30 00:33:52;;;;;;;4.60;4.00;;;;;;;15.66;68.20;99755.34;130458;1263;108396;-83
2023/06/30 00:36:57;;;;;;;4.80;4.10;;;;;;;15.54;68.24;99755.36;130275;1261;108118;-81
2023/06/30 00:40:05;;;;;;;5.20;3.80;;;;;;;15.47;68.41;99754.23;130475;1272;212292;-81
2023/06/30 00:43:10;;;;;;;6.10;4.10;;;;;;;15.45;68.79;99753.83;130029;1264;107710;-80
2023/06/30 00:46:18;;;;;;;4.90;3.80;;;;;;;15.41;68.87;99749.77;130199;1264;106510;-79
2023/06/30 00:49:24;;;;;;;6.20;4.10;;;;;;;15.43;68.90;99750.61;130413;1261;107407;-79
2023/06/30 00:52:29;;;;;;;4.70;3.70;;;;;;;15.46;68.60;99747.21;130324;1262;107617;-80
2023/06/30 00:55:37;;;;;;;4.70;3.90;;;;;;;15.44;68.65;99744.25;130392;1264;107449;-79
2023/06/30 00:58:43;;;;;;;5.60;4.40;;;;;;;15.41;68.77;99737.86;130145;1264;107556;-78
2023/06/30 01:01:54;;;;;;;4.60;3.90;;;;;;;15.36;68.70;99735.80;130363;1260;107582;-79
2023/06/30 01:05:07;;;;;;;4.80;4.30;;;;;;;15.31;68.87;99733.91;130131;1266;106568;-79
2023/06/30 01:08:21;;;;;;;4.90;3.80;;;;;;;15.26;68.87;99732.35;130084;1264;106587;-80
2023/06/30 01:11:27;;;;;;;4.80;4.00;;;;;;;15.20;68.99;99733.75;130136;1260;108761;-80
2023/06/30 01:14:37;;;;;;;5.20;4.10;;;;;;;15.14;68.95;99736.83;130069;1272;107546;-79
2023/06/30 01:17:48;;;;;;;4.80;4.00;;;;;;;15.08;69.05;99734.21;130043;1261;107661;-80
2023/06/30 01:20:55;;;;;;;5.10;4.20;;;;;;;15.03;69.14;99730.11;130129;1264;107492;-83
2023/06/30 01:24:05;;;;;;;4.90;4.10;;;;;;;15.01;69.19;99730.23;130250;1263;107415;-83
2023/06/30 01:27:12;;;;;;;4.40;4.00;;;;;;;15.00;69.10;99727.20;130252;1265;107581;-83
2023/06/30 01:30:18;;;;;;;4.70;3.90;;;;;;;14.99;69.07;99729.55;130785;1261;107248;-81
2023/06/30 01:33:26;;;;;;;5.10;4.20;;;;;;;14.97;69.30;99730.35;131024;1260;107557;-81
2023/06/30 01:36:32;;;;;;;4.90;4.40;;;;;;;14.94;68.98;99722.24;130439;1264;107475;-83
2023/06/30 01:39:38;;;;;;;6.10;3.90;;;;;;;14.88;69.02;99721.23;130643;1260;107554;-84
2023/06/30 01:42:47;;;;;;;4.60;3.90;;;;;;;14.85;69.21;99718.61;130875;1261;107585;-83
2023/06/30 01:45:53;;;;;;;4.70;4.10;;;;;;;14.80;69.19;99718.94;130738;1264;107921;-82
2023/06/30 01:48:59;;;;;;;4.90;4.30;;;;;;;14.74;69.26;99720.20;130578;1262;107520;-83
2023/06/30 01:52:05;;;;;;;5.20;4.10;;;;;;;14.68;69.45;99717.33;130863;1264;107758;-82
2023/06/30 01:55:12;;;;;;;3.80;3.40;;;;;;;14.64;69.40;99716.24;130414;1260;107497;-82
2023/06/30 01:58:19;;;;;;;4.00;3.60;;;;;;;14.62;69.39;99719.90;130597;1264;106557;-82
2023/06/30 02:01:25;;;;;;;4.20;3.80;;;;;;;14.61;69.52;99717.30;130320;1264;107671;-81
2023/06/30 02:04:30;;;;;;;5.50;4.30;;;;;;;14.63;69.57;99714.29;130176;1260;107572;-81
2023/06/30 02:07:36;;;;;;;4.50;4.00;;;;;;;14.63;69.61;99714.29;130192;1264;107468;-81
2023/06/30 02:10:41;;;;;;;4.40;4.00;;;;;;;14.60;69.54;99711.20;130269;1263;106944;-81
2023/06/30 02:13:47;;;;;;;4.80;4.30;;;;;;;14.57;69.63;99713.19;130206;1264;107277;-81
2023/06/30 02:16:52;;;;;;;5.40;4.00;;;;;;;14.54;69.76;99712.98;130373;1259;107576;-83
2023/06/30 02:19:58;;;;;;;6.10;4.30;;;;;;;14.51;69.79;99712.21;130277;1264;107448;-81
2023/06/30 02:23:03;;;;;;;5.40;4.40;;;;;;;14.49;69.66;99709.05;130317;1264;107485;-81
2023/06/30 02:26:09;;;;;;;4.70;4.20;;;;;;;14.46;69.78;99709.31;130426;1264;107551;-81
2023/06/30 02:29:15;;;;;;;4.70;4.10;;;;;;;14.42;69.74;99706.63;130146;1261;107534;-76
2023/06/30 02:32:20;;;;;;;4.80;3.90;;;;;;;14.32;69.89;99705.66;130354;1260;108712;-82
2023/06/30 02:35:26;;;;;;;4.50;3.90;;;;;;;14.32;70.08;99704.30;130289;1260;108167;-82
2023/06/30 02:38:33;;;;;;;4.40;4.00;;;;;;;14.32;70.04;99698.20;130281;1261;107678;-85
2023/06/30 02:41:38;;;;;;;4.40;4.00;;;;;;;14.36;70.08;99694.02;130510;1260;105789;-84
2023/06/30 02:44:44;;;;;;;5.20;4.30;;;;;;;14.38;69.97;99693.00;131286;1263;106445;-84
2023/06/30 02:47:50;;;;;;;4.50;4.10;;;;;;;14.41;70.01;99694.90;131077;1259;106593;-83
2023/06/30 02:50:55;;;;;;;4.80;4.10;;;;;;;14.42;70.28;99692.95;131357;1260;107625;-83
2023/06/30 02:54:02;;;;;;;5.60;4.00;;;;;;;14.44;70.21;99696.03;131191;1262;107439;-83
2023/06/30 02:57:08;;;;;;;4.60;4.20;;;;;;;14.42;70.07;99694.23;131238;1262;107519;-82
2023/06/30 03:00:18;;;;;;;5.70;4.10;;;;;;;14.39;70.29;99690.13;131186;1265;107304;-83
2023/06/30 03:03:24;;;;;;;5.50;4.30;;;;;;;14.42;70.31;99691.63;131046;1263;107599;-82
2023/06/30 03:06:30;;;;;;;3.80;3.40;;;;;;;14.44;70.38;99693.06;131001;1260;107476;-83
2023/06/30 03:09:36;;;;;;;3.70;3.40;;;;;;;14.48;70.38;99696.36;130518;1259;107562;-83
2023/06/30 03:12:41;;;;;;;4.10;3.70;;;;;;;14.56;70.48;99696.20;130937;1258;107338;-83
2023/06/30 03:15:48;;;;;;;4.80;3.90;;;;;;;14.65;70.46;99697.04;130953;1258;107498;-83
2023/06/30 03:18:53;;;;;;;4.10;3.70;;;;;;;14.81;70.64;99696.34;130077;1267;106721;-80
2023/06/30 03:21:59;;;;;;;4.20;3.80;;;;;;;15.06;70.48;99691.24;130073;1264;107497;-83
2023/06/30 03:25:09;;;;;;;4.60;4.10;;;;;;;15.33;70.26;99690.17;130146;1264;106564;-80
2023/06/30 03:28:14;;;;;;;4.40;4.00;;;;;;;15.58;70.24;99686.66;130477;1259;107583;-83
2023/06/30 03:31:20;;;;;;;4.00;3.60;;;;;;;15.86;70.37;99690.66;130237;1264;107558;-78
2023/06/30 03:34:26;;;;;;;4.30;3.60;;;;;;;16.14;70.22;99686.44;130145;1263;107467;-78
2023/06/30 03:37:32;;;;;;;3.50;3.20;;;;;;;16.45;70.08;99686.83;130119;1261;107476;-78
2023/06/30 03:40:38;;;;;;;4.70;3.60;;;;;;;16.74;69.99;99682.17;130184;1264;107482;-78
2023/06/30 03:43:43;;;;;;;4.20;3.70;;;;;;;17.05;69.93;99675.83;130019;1264;107635;-78
2023/06/30 03:46:49;;;;;;;4.20;3.70;;;;;;;17.40;69.97;99673.22;130055;1264;107563;-78
2023/06/30 03:49:55;;;;;;;4.20;3.70;;;;;;;17.71;69.57;99671.95;130076;1264;107259;-78
2023/06/30 03:53:00;;;;;;;4.40;3.80;;;;;;;17.99;69.44;99669.40;130110;1264;106690;-78
2023/06/30 03:56:07;;;;;;;5.10;3.80;;;;;;;18.23;69.14;99669.21;129997;1262;107626;-78
2023/06/30 03:59:13;;;;;;;4.40;4.00;;;;;;;18.48;69.12;99669.45;130050;1264;108640;-78
2023/06/30 04:02:18;;;;;;;4.10;3.70;;;;;;;18.72;69.08;99668.89;130118;1260;106564;-78
2023/06/30 04:05:24;;;;;;;4.00;3.60;;;;;;;18.93;68.97;99668.29;130206;1264;107542;-78
2023/06/30 04:08:29;;;;;;;4.90;3.70;;;;;;;19.12;69.00;99666.35;130165;1261;107489;-78
2023/06/30 04:11:35;;;;;;;4.20;3.50;;;;;;;19.30;69.03;99666.91;130169;1261;107540;-79
2023/06/30 04:14:40;;;;;;;3.70;3.40;;;;;;;19.48;69.03;99667.95;130127;1263;107659;-83
2023/06/30 04:17:46;;;;;;;3.70;3.30;;;;;;;19.67;69.02;99668.13;130099;1263;107584;-81
2023/06/30 04:20:51;;;;;;;4.20;3.50;;;;;;;19.89;69.08;99672.16;130574;1263;107555;-82
2023/06/30 04:23:57;;;;;;;3.50;3.20;;;;;;;20.11;68.90;99675.31;130321;1264;107393;-80
2023/06/30 04:27:02;;;;;;;3.80;3.50;;;;;;;20.31;68.87;99678.52;130233;1264;107984;-82
2023/06/30 04:30:10;;;;;;;3.20;2.90;;;;;;;20.50;68.98;99677.73;130165;1263;107579;-80
2023/06/30 04:33:15;;;;;;;3.40;3.10;;;;;;;20.70;68.88;99675.16;130290;1263;107301;-82
2023/06/30 04:36:21;;;;;;;3.70;3.20;;;;;;;20.88;68.91;99674.27;130285;1263;107537;-81
2023/06/30 04:39:28;;;;;;;3.60;3.20;;;;;;;21.04;68.85;99674.87;130295;1261;108065;-81
2023/06/30 04:42:33;;;;;;;4.40;3.20;;;;;;;21.21;68.98;99677.05;130234;1272;106903;-81
2023/06/30 04:45:39;;;;;;;3.10;2.80;;;;;;;21.40;68.87;99672.49;130131;1261;106683;-79
2023/06/30 04:48:44;;;;;;;4.90;2.90;;;;;;;21.59;68.76;99672.23;130146;1259;107546;-84
2023/06/30 04:51:50;;;;;;;3.50;3.20;;;;;;;21.76;68.62;99667.16;130153;1263;106849;-81
2023/06/30 04:54:56;;;;;;;3.40;3.10;;;;;;;21.91;68.60;99670.30;130154;1263;107599;-81
2023/06/30 04:58:01;;;;;;;3.50;3.20;;;;;;;22.07;68.56;99667.66;130203;1263;107520;-77
2023/06/30 05:01:09;;;;;;;3.60;3.10;;;;;;;22.24;68.30;99669.35;130168;1261;107354;-80
2023/06/30 05:04:15;;;;;;;3.90;3.40;;;;;;;22.38;68.16;99664.76;130458;1264;107498;-78
2023/06/30 05:07:21;;;;;;;6.40;4.40;;;;;;;22.51;67.66;99667.43;130289;1264;107479;-81
2023/06/30 05:10:27;;;;;;;4.90;3.40;;;;;;;22.63;67.57;99665.88;130395;1260;107554;-85
2023/06/30 05:13:33;;;;;;;4.60;3.00;;;;;;;22.74;67.23;99664.33;130629;1261;107471;-85
2023/06/30 05:16:39;;;;;;;3.70;3.10;;;;;;;22.86;66.88;99665.92;130464;1263;106315;-85
2023/06/30 05:19:45;;;;;;;4.40;3.50;;;;;;;23.01;66.57;99666.20;130388;1259;107625;-84
2023/06/30 05:22:50;;;;;;;3.50;2.90;;;;;;;23.10;65.90;99665.81;130375;1258;107287;-85
2023/06/30 05:25:58;;;;;;;3.10;2.60;;;;;;;23.14;65.08;99667.67;130450;1263;107549;-85
2023/06/30 05:29:06;;;;;;;3.50;2.60;;;;;;;23.19;65.20;99668.50;130441;1261;107371;-87
2023/06/30 05:32:11;;;;;;;4.00;2.50;;;;;;;23.25;65.03;99671.20;130310;1264;106395;-86
2023/06/30 05:35:17;;;;;;;3.70;2.70;;;;;;;23.33;65.09;99671.81;130219;1261;107286;-83
2023/06/30 05:38:22;;;;;;;3.80;2.50;;;;;;;23.44;63.95;99665.75;130338;1264;107613;-84
2023/06/30 05:41:28;;;;;;;4.30;2.40;;;;;;;23.43;63.31;99666.33;130422;1259;107612;-84
2023/06/30 05:44:33;;;;;;;3.00;2.50;;;;;;;23.46;61.96;99666.14;130347;1264;107568;-84
2023/06/30 05:47:40;;;;;;;3.30;2.80;;;;;;;23.43;61.36;99669.05;130441;1263;107289;-86
2023/06/30 05:50:46;;;;;;;3.30;2.30;;;;;;;23.49;62.88;99670.33;130460;1261;107571;-85
2023/06/30 05:53:51;;;;;;;3.10;2.80;;;;;;;23.60;62.62;99664.85;130424;1258;107356;-88
2023/06/30 05:56:57;;;;;;;2.70;2.40;;;;;;;23.64;60.85;99668.12;130281;1264;107612;-86
2023/06/30 06:00:03;;;;;;;3.90;2.60;;;;;;;23.67;61.80;99668.14;130422;1259;107523;-87
2023/06/30 06:03:17;;;;;;;4.00;2.30;;;;;;;23.71;61.08;99671.80;130219;1264;107580;-86
2023/06/30 06:06:23;;;;;;;4.50;2.80;;;;;;;23.73;60.99;99667.51;130239;1258;108030;-88
2023/06/30 06:09:29;;;;;;;3.70;2.50;;;;;;;23.73;61.00;99671.45;130331;1263;107294;-87
2023/06/30 06:12:34;;;;;;;4.00;2.70;;;;;;;23.80;61.14;99671.05;130497;1258;107298;-88
2023/06/30 06:15:40;;;;;;;3.00;2.70;;;;;;;23.84;57.44;99668.33;130581;1263;107533;-87
2023/06/30 06:18:47;;;;;;;2.80;2.60;;;;;;;23.79;59.24;99672.02;130638;1258;107136;-85
2023/06/30 06:21:52;;;;;;;4.50;3.00;;;;;;;23.84;58.07;99669.36;130805;1259;107470;-86
2023/06/30 06:24:58;;;;;;;3.70;2.60;;;;;;;23.85;57.43;99674.21;130564;1260;107573;-84
2023/06/30 06:28:03;;;;;;;4.50;2.60;;;;;;;23.90;57.60;99670.47;130411;1262;106594;-86
2023/06/30 06:31:09;;;;;;;3.00;2.50;;;;;;;23.98;58.07;99671.15;130383;1261;107262;-85
2023/06/30 06:34:15;;;;;;;4.40;2.70;;;;;;;24.09;58.30;99673.93;130315;1259;107760;-87
2023/06/30 06:37:21;;;;;;;3.40;2.50;;;;;;;24.19;58.10;99672.73;130250;1264;107519;-85
2023/06/30 06:40:27;;;;;;;4.10;2.20;;;;;;;24.24;56.12;99667.45;130266;1263;107523;-85
2023/06/30 06:43:32;;;;;;;3.20;2.60;;;;;;;24.21;56.62;99663.48;130343;1258;107557;-86
2023/06/30 06:46:37;;;;;;;3.30;2.40;;;;;;;24.18;56.07;99665.41;130149;1264;107540;-87
2023/06/30 06:49:43;;;;;;;2.50;2.20;;;;;;;24.18;56.01;99661.48;130303;1262;107588;-87
2023/06/30 06:52:48;;;;;;;3.40;2.40;;;;;;;24.18;56.41;99665.52;130207;1261;107591;-86
2023/06/30 06:55:56;;;;;;;4.50;3.00;;;;;;;24.29;56.54;99669.06;130130;1263;107507;-85
2023/06/30 06:59:01;;;;;;;2.90;2.40;;;;;;;24.29;53.36;99670.70;130219;1264;108558;-85
2023/06/30 07:02:07;;;;;;;2.30;2.10;;;;;;;24.30;55.33;99672.23;130199;1264;107402;-84
2023/06/30 07:05:13;;;;;;;3.60;2.50;;;;;;;24.44;55.53;99668.28;130281;1264;107673;-79
2023/06/30 07:08:19;;;;;;;4.40;2.50;;;;;;;24.57;55.54;99668.04;130113;1259;107417;-79
2023/06/30 07:11:25;;;;;;;2.80;2.30;;;;;;;24.63;55.47;99663.06;130313;1264;107556;-79
2023/06/30 07:14:31;;;;;;;2.90;2.20;;;;;;;24.65;54.59;99659.77;130332;1264;107557;-79
2023/06/30 07:17:36;;;;;;;2.90;2.30;;;;;;;24.64;52.47;99661.33;130334;1262;107536;-79
2023/06/30 07:20:41;;;;;;;3.50;2.50;;;;;;;24.57;52.90;99661.55;130303;1263;107452;-80
2023/06/30 07:23:50;;;;;;;2.70;2.30;;;;;;;24.54;52.33;99658.95;130304;1261;107546;-79
2023/06/30 07:26:56;;;;;;;2.70;2.30;;;;;;;24.59;52.95;99660.26;130205;1263;107707;-80
2023/06/30 07:30:02;;;;;;;3.00;2.40;;;;;;;24.65;53.02;99661.84;130268;1264;107653;-79
2023/06/30 07:33:07;;;;;;;3.50;2.50;;;;;;;24.67;51.68;99658.64;130334;1263;107497;-79
2023/06/30 07:36:13;;;;;;;3.20;2.40;;;;;;;24.66;52.24;99652.89;130359;1264;107538;-79
2023/06/30 07:39:18;;;;;;;2.80;2.50;;;;;;;24.67;52.48;99647.83;130334;1264;107525;-80
2023/06/30 07:42:24;;;;;;;4.10;2.30;;;;;;;24.72;51.28;99649.17;130168;1265;107543;-81
2023/06/30 07:45:29;;;;;;;2.90;2.60;;;;;;;24.71;51.83;99649.98;130227;1259;107519;-80
2023/06/30 07:48:35;;;;;;;3.30;2.60;;;;;;;24.73;51.04;99643.44;130244;1263;106029;-80
2023/06/30 07:51:41;;;;;;;3.70;2.70;;;;;;;24.73;50.76;99639.09;130243;1263;107466;-79
2023/06/30 07:54:49;;;;;;;3.60;2.30;;;;;;;24.75;50.58;99634.50;130247;1263;107555;-80
2023/06/30 07:57:54;;;;;;;2.70;2.20;;;;;;;24.87;51.59;99630.55;130393;1264;107543;-79
2023/06/30 08:01:00;;;;;;;3.30;2.40;;;;;;;24.98;51.26;99628.11;130142;1263;107547;-79
2023/06/30 08:04:05;;;;;;;2.90;2.50;;;;;;;25.01;49.75;99622.51;130198;1264;107280;-80
2023/06/30 08:07:11;;;;;;;2.80;2.50;;;;;;;25.03;50.85;99617.55;130420;1264;107545;-79
2023/06/30 08:10:17;;;;;;;2.90;2.40;;;;;;;25.19;51.06;99621.58;130195;1261;106768;-80
2023/06/30 08:13:22;;;;;;;3.20;2.50;;;;;;;25.23;50.27;99626.75;130264;1264;107579;-80
2023/06/30 08:16:28;;;;;;;3.30;2.50;;;;;;;25.24;50.49;99628.73;130277;1264;107578;-80
2023/06/30 08:19:34;;;;;;;2.70;2.10;;;;;;;25.33;50.28;99624.13;130188;1263;105645;-80
2023/06/30 08:22:40;;;;;;;2.40;2.20;;;;;;;25.57;50.44;99617.51;130204;1264;107586;-80
2023/06/30 08:25:45;;;;;;;4.00;3.10;;;;;;;25.60;47.29;99615.92;130099;1261;107525;-80
2023/06/30 08:28:51;;;;;;;3.10;2.30;;;;;;;25.46;48.44;99615.11;130140;1264;107701;-80
2023/06/30 08:31:56;;;;;;;3.10;2.70;;;;;;;25.52;47.76;99612.20;130091;1261;108048;-80
2023/06/30 08:35:02;;;;;;;3.40;2.40;;;;;;;25.56;48.78;99610.55;130303;1258;107432;-80
2023/06/30 08:38:08;;;;;;;3.30;2.90;;;;;;;25.66;49.01;99610.70;130217;1260;108760;-80
2023/06/30 08:41:14;;;;;;;3.20;2.60;;;;;;;25.75;49.04;99605.98;130301;1262;107546;-80
2023/06/30 08:44:23;;;;;;;3.20;2.70;;;;;;;25.67;47.46;99606.89;130271;1262;107470;-80
2023/06/30 08:47:32;;;;;;;3.00;2.50;;;;;;;25.56;47.99;99603.35;130203;1263;107437;-80
2023/06/30 08:50:38;;;;;;;2.80;2.50;;;;;;;25.54;48.11;99602.03;130269;1263;107481;-80
2023/06/30 08:53:44;;;;;;;3.60;2.50;;;;;;;25.40;47.76;99600.77;130295;1263;107535;-80
2023/06/30 08:56:49;;;;;;;4.00;2.80;;;;;;;25.23;47.91;99599.87;130295;1264;107586;-80
2023/06/30 08:59:55;;;;;;;2.80;2.60;;;;;;;25.10;48.11;99597.83;130285;1264;107482;-80
2023/06/30 09:03:04;;;;;;;3.40;2.20;;;;;;;25.16;48.26;99594.05;130198;1264;107464;-80
2023/06/30 09:06:14;;;;;;;3.10;2.80;;;;;;;25.38;47.78;99591.70;130353;1264;107725;-80
2023/06/30 09:09:25;;;;;;;3.80;2.70;;;;;;;25.61;47.31;99592.38;130149;1263;107637;-79
2023/06/30 09:12:29;;;;;;;;;;;;;;;25.76;46.61;99587.50;130122;1263;107632;-79
2023/06/30 09:15:36;;;;;;;2.80;2.50;;;;;;;25.90;45.86;99588.36;130068;1263;107465;-79
2023/06/30 09:18:41;;;;;;;2.50;2.30;;;;;;;25.89;44.83;99589.02;130233;1264;107542;-79
2023/06/30 09:21:47;;;;;;;3.30;2.50;;;;;;;25.86;46.47;99589.98;130204;1259;107127;-79
2023/06/30 09:24:53;;;;;;;2.60;2.40;;;;;;;25.93;46.62;99588.05;129992;1258;107324;-79
2023/06/30 09:27:58;;;;;;;3.20;2.50;;;;;;;25.99;46.11;99588.06;130085;1264;107578;-79
2023/06/30 09:31:04;;;;;;;2.80;2.60;;;;;;;26.13;45.90;99586.33;130093;1264;107665;-79
2023/06/30 09:34:14;;;;;;;2.90;2.30;;;;;;;26.42;46.60;99584.41;130037;1264;107564;-80
2023/06/30 09:37:20;;;;;;;2.70;2.50;;;;;;;26.68;45.57;99582.23;130104;1264;107919;-79
2023/06/30 09:40:27;;;;;;;4.70;2.50;;;;;;;26.77;45.91;99588.94;130040;1264;107254;-79
2023/06/30 09:43:34;;;;;;;3.10;2.40;;;;;;;26.75;45.58;99592.94;130102;1262;106888;-79
2023/06/30 09:46:47;;;;;;;3.70;2.30;;;;;;;26.73;45.88;99591.14;130042;1264;107972;-80
2023/06/30 09:49:54;;;;;;;2.30;2.10;;;;;;;26.89;45.98;99591.27;130136;1264;107427;-79
2023/06/30 09:53:01;;;;;;;2.50;2.30;;;;;;;27.09;45.95;99586.23;130022;1259;107554;-80
2023/06/30 09:56:10;;;;;;;2.50;2.30;;;;;;;27.31;44.99;99572.48;130012;1263;107570;-81
2023/06/30 09:59:15;;;;;;;3.90;2.50;;;;;;;27.45;44.37;99572.31;130183;1263;107869;-80
2023/06/30 10:02:21;;;;;;;3.40;2.50;;;;;;;27.32;43.25;99572.09;130107;1264;108570;-80
2023/06/30 10:05:26;;;;;;;2.90;2.30;;;;;;;27.33;43.95;99572.41;130310;1261;108579;-79
2023/06/30 10:08:33;;;;;;;2.30;2.10;;;;;;;27.40;42.94;99570.19;130214;1259;108761;-80
2023/06/30 10:11:40;;;;;;;4.70;2.30;;;;;;;27.40;42.79;99569.58;130206;1261;107949;-80
2023/06/30 10:14:48;;;;;;;3.80;2.60;;;;;;;27.35;42.83;99569.23;130089;1258;107527;-80
2023/06/30 10:17:55;;;;;;;5.10;2.30;;;;;;;27.52;43.86;99567.34;130158;1263;107467;-80
2023/06/30 10:21:01;;;;;;;2.40;2.20;;;;;;;27.69;43.12;99564.44;130204;1261;107408;-79
2023/06/30 10:24:08;;;;;;;2.70;2.30;;;;;;;27.60;41.25;99566.41;130179;1264;107534;-81
2023/06/30 10:27:18;;;;;;;2.80;2.60;;;;;;;27.42;42.40;99567.88;130140;1259;107533;-80
2023/06/30 10:30:24;;;;;;;3.60;2.10;;;;;;;27.20;42.08;99569.66;130193;1264;108179;-80
2023/06/30 10:33:30;;;;;;;2.50;2.30;;;;;;;27.06;41.68;99569.48;130161;1263;107546;-80
2023/06/30 10:36:36;;;;;;;3.10;2.10;;;;;;;27.07;43.03;99563.39;130195;1264;107464;-80
2023/06/30 10:39:43;;;;;;;4.30;2.20;;;;;;;27.29;43.41;99556.20;130180;1264;107431;-81
2023/06/30 10:42:50;;;;;;;3.60;2.60;;;;;;;27.50;42.09;99553.31;130220;1264;107510;-80
2023/06/30 10:46:08;;;;;;;4.30;2.50;;;;;;;27.57;42.26;99551.23;130191;1264;107497;-80
2023/06/30 10:49:20;;;;;;;2.60;2.40;;;;;;;27.55;42.74;99550.61;130168;1259;108653;-80
2023/06/30 10:52:30;;;;;;;3.00;2.30;;;;;;;27.58;42.31;99548.77;130201;1261;107555;-80
2023/06/30 10:55:37;;;;;;;3.00;2.70;;;;;;;27.54;42.66;99549.08;130171;1263;107701;-80
2023/06/30 10:58:46;;;;;;;6.60;2.50;;;;;;;27.46;41.24;99551.97;130149;1264;107420;-80
2023/06/30 11:02:11;;;;;;;4.90;2.50;;;;;;;27.37;41.44;99543.41;130136;1264;107508;-80
2023/06/30 11:05:28;;;;;;;3.40;2.30;;;;;;;27.46;41.81;99535.91;130267;1261;108102;-80
2023/06/30 11:08:37;;;;;;;3.30;2.30;;;;;;;27.33;41.76;99532.65;130171;1263;106691;-80
2023/06/30 11:11:53;;;;;;;3.00;2.70;;;;;;;27.30;42.48;99530.41;130224;1261;107286;-80
2023/06/30 11:14:59;;;;;;;3.70;2.60;;;;;;;27.50;42.03;99526.73;130303;1261;107420;-80
2023/06/30 11:18:10;;;;;;;3.30;2.60;;;;;;;27.58;41.23;99524.11;130179;1262;107660;-80
2023/06/30 11:21:16;;;;;;;3.20;2.90;;;;;;;27.51;41.58;99523.28;130226;1263;106693;-82
2023/06/30 11:24:21;;;;;;;4.70;2.50;;;;;;;27.44;41.34;99517.62;130152;1264;107563;-80
2023/06/30 11:27:30;;;;;;;3.10;2.60;;;;;;;27.49;42.18;99514.85;130202;1264;107586;-80
2023/06/30 11:30:39;;;;;;;3.40;2.80;;;;;;;27.73;42.57;99515.30;130155;1264;107632;-80
2023/06/30 11:33:46;;;;;;;2.50;2.30;;;;;;;27.88;42.16;99514.70;130321;1263;107434;-80
2023/06/30 11:36:51;;;;;;;3.30;2.20;;;;;;;27.96;41.97;99513.85;130215;1264;107454;-80
2023/06/30 11:39:59;;;;;;;3.30;2.80;;;;;;;27.92;42.06;99508.88;130116;1262;107550;-80
2023/06/30 11:43:05;;;;;;;3.30;2.40;;;;;;;27.70;40.84;99510.17;130160;1264;107487;-80
2023/06/30 11:46:13;;;;;;;2.60;2.40;;;;;;;27.43;40.90;99513.14;130198;1259;107430;-80
2023/06/30 11:49:19;;;;;;;2.60;2.40;;;;;;;27.31;41.66;99509.65;130300;1264;107372;-81
2023/06/30 11:52:25;;;;;;;4.30;2.70;;;;;;;27.23;41.88;99510.54;130357;1264;107528;-80
2023/06/30 11:55:30;;;;;;;4.20;2.60;;;;;;;27.05;40.81;99506.08;130216;1262;107321;-80
2023/06/30 11:58:36;;;;;;;3.10;2.30;;;;;;;26.82;41.51;99504.56;130201;1264;106727;-80
2023/06/30 12:01:42;;;;;;;2.80;2.40;;;;;;;26.73;41.42;99505.20;130112;1263;106521;-80
2023/06/30 12:04:50;;;;;;;2.50;2.30;;;;;;;26.61;41.82;99508.35;130139;1264;107243;-80
2023/06/30 12:07:56;;;;;;;2.90;2.60;;;;;;;26.70;42.16;99503.58;130112;1263;107290;-80
2023/06/30 12:11:06;;;;;;;4.30;2.40;;;;;;;26.85;42.29;99501.98;130299;1258;108518;-80
2023/06/30 12:14:14;;;;;;;3.70;2.60;;;;;;;27.06;42.27;99503.11;130176;1258;107548;-80
2023/06/30 12:17:22;;;;;;;4.00;2.50;;;;;;;27.32;41.81;99497.34;130352;1264;107506;-80
2023/06/30 12:20:35;;;;;;;3.90;2.60;;;;;;;27.55;41.64;99495.69;130328;1264;107597;-80
2023/06/30 12:23:44;;;;;;;4.10;2.20;;;;;;;27.78;41.52;99493.39;130242;1265;107719;-80
2023/06/30 12:26:52;;;;;;;4.20;2.20;;;;;;;28.04;41.24;99487.00;130258;1263;107597;-80
2023/06/30 12:29:57;;;;;;;2.90;2.50;;;;;;;28.23;40.66;99485.63;130159;1264;107781;-80
2023/06/30 12:33:03;;;;;;;2.80;2.50;;;;;;;28.36;40.56;99481.38;130199;1264;107432;-80
2023/06/30 12:36:09;;;;;;;2.90;2.60;;;;;;;28.60;40.36;99482.70;130205;1264;106730;-80
2023/06/30 12:39:14;;;;;;;2.40;2.00;;;;;;;28.71;40.06;99482.79;130051;1264;173890;-80
2023/06/30 12:42:20;;;;;;;3.30;2.30;;;;;;;28.74;40.15;99479.41;130159;1264;107675;-80
2023/06/30 12:45:26;;;;;;;2.80;2.20;;;;;;;28.86;39.82;99480.19;130283;1264;107394;-81
2023/06/30 12:48:32;;;;;;;4.40;2.20;;;;;;;28.86;39.06;99482.77;130207;1259;107596;-80
2023/06/30 12:51:39;;;;;;;3.50;2.30;;;;;;;28.69;38.03;99485.06;130248;1264;107954;-80
2023/06/30 12:54:45;;;;;;;3.60;1.90;;;;;;;28.68;39.42;99480.30;130249;1264;107397;-80
2023/06/30 12:57:51;;;;;;;2.40;2.10;;;;;;;28.87;39.15;99477.59;130310;1263;107557;-80
2023/06/30 13:01:00;;;;;;;2.40;2.20;;;;;;;28.88;38.93;99473.73;130278;1264;107544;-81
2023/06/30 13:04:06;;;;;;;2.40;1.90;;;;;;;28.77;38.26;99471.91;130237;1263;108624;-80
2023/06/30 13:07:12;;;;;;;2.30;2.10;;;;;;;28.73;37.87;99468.55;130280;1264;107852;-79
2023/06/30 13:10:17;;;;;;;3.00;2.00;;;;;;;28.70;38.49;99467.03;130239;1263;107378;-80
2023/06/30 13:13:23;;;;;;;3.20;2.00;;;;;;;28.77;39.28;99463.77;130213;1264;107642;-80
2023/06/30 13:16:28;;;;;;;2.40;2.10;;;;;;;28.97;39.65;99459.95;130257;1264;108639;-80
2023/06/30 13:19:34;;;;;;;4.40;2.20;;;;;;;29.12;38.64;99454.92;130229;1258;107950;-80
2023/06/30 13:22:39;;;;;;;3.40;2.20;;;;;;;29.03;38.29;99453.99;130471;1258;105918;-80
2023/06/30 13:25:45;;;;;;;2.30;2.00;;;;;;;28.99;39.12;99447.19;130219;1264;107417;-80
2023/06/30 13:28:50;;;;;;;2.40;2.20;;;;;;;29.11;38.97;99438.78;130254;1263;107604;-80
2023/06/30 13:31:56;;;;;;;2.40;2.10;;;;;;;29.20;39.26;99437.04;130304;1262;107570;-80
2023/06/30 13:35:02;;;;;;;2.80;2.20;;;;;;;29.32;39.20;99435.31;130286;1263;107297;-80
2023/06/30 13:38:10;;;;;;;3.20;2.20;;;;;;;29.42;39.40;99431.21;130202;1263;107334;-80
2023/06/30 13:41:16;;;;;;;2.70;2.10;;;;;;;29.56;39.15;99425.88;130459;1262;107427;-81
2023/06/30 13:44:22;;;;;;;2.50;2.30;;;;;;;29.48;38.10;99419.56;130284;1263;108759;-80
2023/06/30 13:47:27;;;;;;;2.30;2.10;;;;;;;29.26;38.43;99421.06;130239;1259;107390;-80
2023/06/30 13:50:33;;;;;;;2.90;2.20;;;;;;;29.14;38.63;99422.15;130240;1258;107270;-80
2023/06/30 13:53:39;;;;;;;3.30;2.10;;;;;;;29.06;38.65;99423.36;130293;1263;107249;-80
2023/06/30 13:56:45;;;;;;;2.10;1.90;;;;;;;28.97;38.24;99425.40;130300;1264;108647;-80
2023/06/30 13:59:50;;;;;;;2.20;1.90;;;;;;;29.00;38.66;99409.54;130218;1263;107575;-80
2023/06/30 14:02:56;;;;;;;2.50;2.30;;;;;;;29.21;38.84;99403.00;130192;1264;107592;-80
2023/06/30 14:06:01;;;;;;;2.20;2.00;;;;;;;29.25;38.90;99405.81;130304;1265;108891;-79
2023/06/30 14:09:09;;;;;;;2.40;2.20;;;;;;;29.33;38.84;99398.42;130195;1264;107472;-79
2023/06/30 14:12:15;;;;;;;3.20;2.30;;;;;;;29.48;38.94;99392.73;130303;1264;107423;-80
2023/06/30 14:15:20;;;;;;;2.60;2.30;;;;;;;29.57;39.09;99390.52;130277;1265;107437;-80
2023/06/30 14:18:26;;;;;;;3.90;2.30;;;;;;;29.56;39.00;99388.88;130197;1259;107406;-79